createdAt,value
2019-04-01T00:01:30.234Z,6.75
2019-04-01T00:04:43.939Z,6.57
2019-04-01T00:07:57.398Z,6.48
2019-04-01T00:11:10.966Z,6.46
2019-04-01T00:14:24.777Z,6.48
2019-04-01T00:17:38.251Z,6.43
2019-04-01T00:20:51.728Z,6.36
2019-04-01T00:24:05.288Z,6.27
2019-04-01T00:27:18.767Z,6.20
2019-04-01T00:30:32.752Z,6.15
2019-04-01T00:33:46.218Z,6.12
2019-04-01T00:36:59.701Z,6.10
2019-04-01T00:40:13.274Z,6.04
2019-04-01T00:43:46.700Z,5.97
2019-04-01T00:47:00.398Z,5.82
2019-04-01T00:50:13.888Z,5.74
2019-04-01T00:53:27.344Z,5.69
2019-04-01T00:56:41.202Z,5.67
2019-04-01T00:59:54.958Z,5.69
2019-04-01T01:03:08.685Z,5.66
2019-04-01T01:06:22.275Z,5.69
2019-04-01T01:09:36.047Z,5.69
2019-04-01T01:12:49.887Z,5.66
2019-04-01T01:16:03.348Z,5.59
2019-04-01T01:19:17.247Z,5.61
2019-04-01T01:22:31.115Z,5.61
2019-04-01T01:25:44.699Z,5.54
2019-04-01T01:28:58.180Z,5.56
2019-04-01T01:32:11.780Z,5.54
2019-04-01T01:35:25.269Z,5.47
2019-04-01T01:38:39.016Z,5.40
2019-04-01T01:41:52.499Z,5.49
2019-04-01T01:45:06.192Z,5.58
2019-04-01T01:48:19.968Z,5.55
2019-04-01T01:51:33.475Z,5.53
2019-04-01T01:54:46.969Z,5.52
2019-04-01T01:58:00.835Z,5.56
2019-04-01T02:01:14.321Z,5.55
2019-04-01T02:04:27.889Z,5.48
2019-04-01T02:07:41.632Z,5.45
2019-04-01T02:10:55.616Z,5.43
2019-04-01T02:14:09.368Z,5.38
2019-04-01T02:17:23.434Z,5.39
2019-04-01T02:20:36.904Z,5.38
2019-04-01T02:23:50.499Z,5.41
2019-04-01T02:27:04.461Z,5.28
2019-04-01T02:30:18.215Z,5.24
2019-04-01T02:33:31.706Z,5.27
2019-04-01T02:36:45.201Z,5.32
2019-04-01T02:39:59.028Z,5.34
2019-04-01T02:43:12.619Z,5.34
2019-04-01T02:46:26.199Z,5.22
2019-04-01T02:49:39.699Z,5.28
2019-04-01T02:52:53.308Z,5.22
2019-04-01T02:56:06.775Z,5.23
2019-04-01T02:59:20.269Z,5.19
2019-04-01T03:02:33.750Z,5.15
2019-04-01T03:05:47.258Z,5.12
2019-04-01T03:09:01.553Z,5.09
2019-04-01T03:12:15.029Z,5.00
2019-04-01T03:15:28.625Z,4.98
2019-04-01T03:18:42.100Z,5.01
2019-04-01T03:21:55.809Z,5.04
2019-04-01T03:25:09.589Z,5.06
2019-04-01T03:28:23.445Z,5.10
2019-04-01T03:31:37.026Z,5.05
2019-04-01T03:34:50.597Z,4.91
2019-04-01T03:38:04.193Z,4.93
2019-04-01T03:41:17.766Z,4.87
2019-04-01T03:44:31.343Z,4.94
2019-04-01T03:47:45.185Z,4.94
2019-04-01T03:50:58.684Z,4.92
2019-04-01T03:54:12.176Z,4.89
2019-04-01T03:57:25.650Z,4.84
2019-04-01T04:00:39.224Z,4.87
2019-04-01T04:03:52.801Z,4.84
2019-04-01T04:07:06.570Z,4.83
2019-04-01T04:10:20.167Z,4.84
2019-04-01T04:13:33.777Z,4.84
2019-04-01T04:16:47.518Z,4.89
2019-04-01T04:20:01.107Z,4.90
2019-04-01T04:23:14.568Z,4.88
2019-04-01T04:26:28.094Z,4.80
2019-04-01T04:29:41.559Z,4.75
2019-04-01T04:32:55.413Z,4.63
2019-04-01T04:36:08.888Z,4.60
2019-04-01T04:39:22.879Z,4.46
2019-04-01T04:42:36.353Z,4.34
2019-04-01T04:45:49.960Z,4.41
2019-04-01T04:49:03.504Z,4.40
2019-04-01T04:52:16.970Z,4.34
2019-04-01T04:55:30.447Z,4.28
2019-04-01T04:58:43.915Z,4.17
2019-04-01T05:01:57.521Z,4.22
2019-04-01T05:05:11.299Z,4.19
2019-04-01T05:08:25.059Z,4.21
2019-04-01T05:11:38.588Z,4.16
2019-04-01T05:14:52.437Z,4.20
2019-04-01T05:18:06.352Z,4.21
2019-04-01T05:21:20.544Z,4.21
2019-04-01T05:24:34.833Z,4.11
2019-04-01T05:27:48.712Z,4.11
2019-04-01T05:31:05.675Z,4.04
2019-04-01T05:34:20.950Z,4.02
2019-04-01T05:37:35.120Z,4.05
2019-04-01T05:40:48.800Z,4.08
2019-04-01T05:44:02.643Z,4.09
2019-04-01T05:47:18.359Z,4.15
2019-04-01T05:50:32.075Z,4.22
2019-04-01T05:53:45.770Z,4.27
2019-04-01T05:56:59.672Z,4.36
2019-04-01T06:00:21.001Z,4.47
2019-04-01T06:03:34.683Z,4.59
2019-04-01T06:06:49.098Z,4.72
2019-04-01T06:10:03.305Z,4.81
2019-04-01T06:13:17.163Z,4.89
2019-04-01T06:16:30.999Z,4.84
2019-04-01T06:19:44.980Z,5.01
2019-04-01T06:22:58.753Z,5.18
2019-04-01T06:26:12.344Z,5.34
2019-04-01T06:29:26.347Z,5.41
2019-04-01T06:32:39.920Z,5.52
2019-04-01T06:35:53.713Z,5.69
2019-04-01T06:39:07.529Z,5.84
2019-04-01T06:42:21.421Z,5.90
2019-04-01T06:45:35.261Z,6.08
2019-04-01T06:48:48.840Z,6.20
2019-04-01T06:52:02.918Z,6.35
2019-04-01T06:55:16.856Z,6.36
2019-04-01T06:58:30.655Z,6.50
2019-04-01T07:01:44.367Z,6.64
2019-04-01T07:04:58.113Z,6.61
2019-04-01T07:08:11.935Z,6.80
2019-04-01T07:11:25.601Z,6.92
2019-04-01T07:14:39.880Z,7.05
2019-04-01T07:17:53.861Z,7.15
2019-04-01T07:21:10.143Z,7.40
2019-04-01T07:24:23.720Z,7.58
2019-04-01T07:27:38.103Z,7.84
2019-04-01T07:30:51.793Z,7.88
2019-04-01T07:34:05.655Z,8.02
2019-04-01T07:37:19.244Z,8.07
2019-04-01T07:40:33.535Z,8.12
2019-04-01T07:43:47.512Z,8.21
2019-04-01T07:47:01.634Z,8.26
2019-04-01T07:50:15.285Z,8.33
2019-04-01T07:53:29.099Z,8.42
2019-04-01T07:56:42.578Z,8.52
2019-04-01T07:59:56.969Z,8.75
2019-04-01T08:03:10.976Z,8.85
2019-04-01T08:06:24.851Z,8.95
2019-04-01T08:09:39.024Z,9.15
2019-04-01T08:12:52.603Z,9.24
2019-04-01T08:16:06.280Z,9.23
2019-04-01T08:19:19.981Z,9.33
2019-04-01T08:22:33.659Z,9.52
2019-04-01T08:25:48.115Z,9.71
2019-04-01T08:29:01.895Z,9.90
2019-04-01T08:32:15.590Z,9.99
2019-04-01T08:35:29.503Z,10.24
2019-04-01T08:38:43.203Z,10.60
2019-04-01T08:41:56.804Z,10.83
2019-04-01T08:45:10.671Z,10.88
2019-04-01T08:48:25.035Z,11.01
2019-04-01T08:51:38.951Z,11.11
2019-04-01T08:54:52.545Z,11.16
2019-04-01T08:58:06.411Z,11.22
2019-04-01T09:01:34.161Z,11.42
2019-04-01T09:04:35.377Z,11.65
2019-04-01T09:07:49.456Z,11.63
2019-04-01T09:11:03.133Z,11.97
2019-04-01T09:14:17.223Z,12.28
2019-04-01T09:17:30.736Z,12.22
2019-04-01T09:20:44.311Z,12.50
2019-04-01T09:23:57.923Z,12.58
2019-04-01T09:27:11.703Z,12.73
2019-04-01T09:30:25.434Z,12.82
2019-04-01T09:33:39.333Z,13.01
2019-04-01T09:36:52.921Z,13.07
2019-04-01T09:40:07.026Z,13.26
2019-04-01T09:43:21.065Z,13.48
2019-04-01T09:46:34.739Z,13.87
2019-04-01T09:49:48.220Z,14.25
2019-04-01T09:53:01.806Z,14.33
2019-04-01T09:56:15.270Z,14.13
2019-04-01T09:59:28.752Z,14.24
2019-04-01T10:02:42.660Z,14.67
2019-04-01T10:05:56.496Z,14.88
2019-04-01T10:09:10.198Z,14.94
2019-04-01T10:12:23.895Z,15.03
2019-04-01T10:15:37.389Z,15.54
2019-04-01T10:18:50.979Z,15.74
2019-04-01T10:22:04.900Z,15.87
2019-04-01T10:25:18.488Z,15.59
2019-04-01T10:28:32.491Z,15.74
2019-04-01T10:31:46.476Z,16.10
2019-04-01T10:35:00.407Z,16.00
2019-04-01T10:38:14.284Z,16.53
2019-04-01T10:41:28.008Z,16.76
2019-04-01T10:44:41.847Z,16.84
2019-04-01T10:47:55.354Z,17.09
2019-04-01T10:51:09.095Z,17.44
2019-04-01T10:54:23.017Z,17.37
2019-04-01T10:57:36.825Z,17.33
2019-04-01T11:00:50.728Z,17.75
2019-04-01T11:04:06.200Z,17.79
2019-04-01T11:07:22.985Z,17.83
2019-04-01T11:10:37.726Z,18.16
2019-04-01T11:13:54.380Z,18.17
2019-04-01T11:17:10.561Z,18.66
2019-04-01T11:20:25.984Z,18.64
2019-04-01T11:23:39.666Z,19.03
2019-04-01T11:26:53.481Z,18.93
2019-04-01T11:30:08.482Z,18.92
2019-04-01T11:33:22.086Z,19.08
2019-04-01T11:36:35.764Z,19.26
2019-04-01T11:39:49.307Z,19.41
2019-04-01T11:43:04.922Z,18.94
2019-04-01T11:46:18.346Z,19.12
2019-04-01T11:49:32.087Z,19.77
2019-04-01T11:52:45.822Z,20.32
2019-04-01T11:55:59.535Z,20.39
2019-04-01T11:59:13.028Z,20.44
2019-04-01T12:02:26.609Z,20.86
2019-04-01T12:05:40.502Z,20.80
2019-04-01T12:08:53.998Z,20.51
2019-04-01T12:12:22.332Z,20.83
2019-04-01T12:15:23.094Z,21.14
2019-04-01T12:18:36.697Z,21.32
2019-04-01T12:21:50.300Z,20.49
2019-04-01T12:25:04.804Z,20.64
2019-04-01T12:28:18.900Z,20.72
2019-04-01T12:31:32.623Z,21.06
2019-04-01T12:34:46.809Z,21.41
2019-04-01T12:38:00.764Z,21.53
2019-04-01T12:41:15.113Z,22.03
2019-04-01T12:44:28.916Z,22.38
2019-04-01T12:47:43.402Z,22.09
2019-04-01T12:50:57.975Z,21.82
2019-04-01T12:54:12.063Z,21.41
2019-04-01T12:57:26.016Z,21.32
2019-04-01T13:00:39.526Z,21.77
2019-04-01T13:03:53.014Z,21.68
2019-04-01T13:07:06.618Z,21.88
2019-04-01T13:10:20.565Z,21.86
2019-04-01T13:13:34.096Z,21.18
2019-04-01T13:16:47.974Z,21.22
2019-04-01T13:20:01.667Z,21.56
2019-04-01T13:23:15.193Z,21.61
2019-04-01T13:26:28.732Z,21.53
2019-04-01T13:29:42.458Z,21.38
2019-04-01T13:32:56.125Z,21.46
2019-04-01T13:36:09.936Z,21.46
2019-04-01T13:39:23.925Z,22.07
2019-04-01T13:42:37.604Z,23.02
2019-04-01T13:45:51.270Z,23.42
2019-04-01T13:49:05.051Z,23.43
2019-04-01T13:52:19.139Z,22.79
2019-04-01T13:55:33.046Z,22.55
2019-04-01T13:58:46.880Z,22.29
2019-04-01T14:02:00.696Z,22.76
2019-04-01T14:05:14.639Z,22.06
2019-04-01T14:08:28.621Z,21.99
2019-04-01T14:11:42.669Z,22.03
2019-04-01T14:14:56.415Z,22.23
2019-04-01T14:18:10.020Z,22.39
2019-04-01T14:21:23.753Z,22.44
2019-04-01T14:24:37.525Z,22.78
2019-04-01T14:27:51.147Z,22.95
2019-04-01T14:31:05.234Z,22.57
2019-04-01T14:34:23.216Z,23.00
2019-04-01T14:37:35.147Z,23.41
2019-04-01T14:40:49.049Z,23.60
2019-04-01T14:44:03.000Z,22.81
2019-04-01T14:47:16.586Z,21.96
2019-04-01T14:50:30.457Z,22.06
2019-04-01T14:53:43.946Z,22.55
2019-04-01T14:56:57.555Z,22.24
2019-04-01T15:00:12.544Z,22.25
2019-04-01T15:03:26.029Z,21.86
2019-04-01T15:06:39.514Z,22.09
2019-04-01T15:09:53.102Z,21.95
2019-04-01T15:13:06.745Z,22.22
2019-04-01T15:16:20.342Z,22.27
2019-04-01T15:19:33.940Z,22.06
2019-04-01T15:22:47.456Z,21.68
2019-04-01T15:26:01.226Z,21.78
2019-04-01T15:29:15.254Z,22.11
2019-04-01T15:32:28.992Z,22.32
2019-04-01T15:35:42.726Z,22.37
2019-04-01T15:38:56.526Z,21.76
2019-04-01T15:42:10.299Z,21.75
2019-04-01T15:45:24.347Z,21.50
2019-04-01T15:48:38.070Z,21.35
2019-04-01T15:51:51.605Z,21.25
2019-04-01T15:55:05.351Z,21.07
2019-04-01T15:58:18.844Z,21.01
2019-04-01T16:01:32.464Z,21.03
2019-04-01T16:04:46.511Z,21.08
2019-04-01T16:08:00.275Z,21.35
2019-04-01T16:11:13.912Z,21.04
2019-04-01T16:14:27.808Z,20.66
2019-04-01T16:17:41.520Z,20.84
2019-04-01T16:20:55.543Z,20.75
2019-04-01T16:24:11.274Z,20.61
2019-04-01T16:27:24.907Z,20.39
2019-04-01T16:30:38.538Z,20.21
2019-04-01T16:33:52.560Z,20.00
2019-04-01T16:37:06.247Z,19.92
2019-04-01T16:40:20.234Z,19.81
2019-04-01T16:43:33.979Z,19.93
2019-04-01T16:46:47.718Z,19.86
2019-04-01T16:50:01.674Z,19.68
2019-04-01T16:53:15.415Z,19.56
2019-04-01T16:56:29.189Z,19.28
2019-04-01T16:59:42.819Z,18.98
2019-04-01T17:02:57.021Z,18.80
2019-04-01T17:06:10.816Z,18.55
2019-04-01T17:09:24.335Z,18.52
2019-04-01T17:12:37.944Z,18.25
2019-04-01T17:15:51.539Z,17.97
2019-04-01T17:19:05.178Z,17.79
2019-04-01T17:22:19.209Z,17.71
2019-04-01T17:25:32.977Z,17.41
2019-04-01T17:28:47.020Z,17.01
2019-04-01T17:32:00.624Z,16.90
2019-04-01T17:35:14.529Z,16.88
2019-04-01T17:38:28.276Z,16.77
2019-04-01T17:41:46.114Z,16.70
2019-04-01T17:45:02.700Z,16.49
2019-04-01T17:48:16.712Z,16.36
2019-04-01T17:51:31.047Z,16.08
2019-04-01T17:54:44.630Z,15.76
2019-04-01T17:57:58.335Z,15.49
2019-04-01T18:01:12.168Z,15.31
2019-04-01T18:04:26.036Z,15.12
2019-04-01T18:07:39.535Z,14.91
2019-04-01T18:10:53.125Z,14.76
2019-04-01T18:14:06.613Z,14.45
2019-04-01T18:17:20.481Z,14.17
2019-04-01T18:20:34.453Z,14.00
2019-04-01T18:23:48.039Z,13.85
2019-04-01T18:27:01.523Z,13.75
2019-04-01T18:30:15.840Z,13.60
2019-04-01T18:33:30.298Z,13.59
2019-04-01T18:36:44.142Z,13.51
2019-04-01T18:39:57.614Z,13.40
2019-04-01T18:43:11.123Z,13.18
2019-04-01T18:46:24.616Z,12.90
2019-04-01T18:49:38.085Z,12.69
2019-04-01T18:52:51.570Z,12.57
2019-04-01T18:56:05.472Z,12.45
2019-04-01T18:59:19.044Z,12.34
2019-04-01T19:02:32.539Z,12.25
2019-04-01T19:05:47.075Z,12.14
2019-04-01T19:09:09.205Z,12.03
2019-04-01T19:12:16.461Z,11.87
2019-04-01T19:15:31.180Z,11.77
2019-04-01T19:18:44.974Z,11.57
2019-04-01T19:21:58.769Z,11.30
2019-04-01T19:25:12.474Z,11.12
2019-04-01T19:28:26.231Z,10.94
2019-04-01T19:31:41.170Z,10.77
2019-04-01T19:34:55.005Z,10.61
2019-04-01T19:38:08.609Z,10.37
2019-04-01T19:41:22.109Z,10.06
2019-04-01T19:44:35.681Z,9.79
2019-04-01T19:47:49.164Z,9.74
2019-04-01T19:51:02.951Z,9.68
2019-04-01T19:54:16.426Z,9.47
2019-04-01T19:57:30.028Z,9.38
2019-04-01T20:00:43.519Z,9.35
2019-04-01T20:03:57.079Z,9.25
2019-04-01T20:07:10.784Z,9.15
2019-04-01T20:13:54.737Z,8.80
2019-04-01T20:17:07.192Z,8.72
2019-04-01T20:20:20.762Z,8.74
2019-04-01T20:23:34.240Z,8.69
2019-04-01T20:26:47.758Z,8.46
2019-04-01T20:30:01.396Z,8.29
2019-04-01T20:33:18.087Z,8.10
2019-04-01T20:36:31.416Z,8.08
2019-04-01T20:39:45.455Z,8.06
2019-04-01T20:42:59.451Z,8.08
2019-04-01T20:46:13.343Z,7.99
2019-04-01T20:49:26.829Z,7.83
2019-04-01T20:52:40.804Z,7.72
2019-04-01T20:55:54.311Z,7.65
2019-04-01T20:59:07.808Z,7.56
2019-04-01T21:02:21.520Z,7.48
2019-04-01T21:05:35.007Z,7.53
2019-04-01T21:08:48.491Z,7.47
2019-04-01T21:12:03.135Z,7.31
2019-04-01T21:15:16.880Z,7.16
2019-04-01T21:18:30.387Z,7.07
2019-04-01T21:21:43.884Z,6.91
2019-04-01T21:24:57.360Z,6.78
2019-04-01T21:28:10.839Z,6.76
2019-04-01T21:31:24.575Z,6.79
2019-04-01T21:34:38.066Z,6.73
2019-04-01T21:37:51.597Z,6.79
2019-04-01T21:41:05.183Z,6.80
2019-04-01T21:44:18.680Z,6.80
2019-04-01T21:47:32.557Z,6.64
2019-04-01T21:50:46.390Z,6.52
2019-04-01T21:54:00.301Z,6.41
2019-04-01T21:57:13.973Z,6.30
2019-04-01T22:00:38.726Z,6.32
2019-04-01T22:03:52.216Z,6.34
2019-04-01T22:07:05.695Z,6.22
2019-04-01T22:10:19.182Z,6.15
2019-04-01T22:13:32.936Z,6.07
2019-04-01T22:16:48.032Z,6.11
2019-04-01T22:20:02.315Z,6.19
2019-04-01T22:23:16.249Z,6.23
2019-04-01T22:26:29.832Z,6.26
2019-04-01T22:29:43.423Z,6.27
2019-04-01T22:32:57.260Z,6.17
2019-04-01T22:36:11.419Z,6.13
2019-04-01T22:39:27.194Z,6.14
2019-04-01T22:42:41.215Z,6.04
2019-04-01T22:45:54.975Z,5.95
2019-04-01T22:49:08.456Z,5.79
2019-04-01T22:52:21.944Z,5.73
2019-04-01T22:55:35.541Z,5.69
2019-04-01T22:58:49.023Z,5.63
2019-04-01T23:02:02.605Z,5.57
2019-04-01T23:05:16.434Z,5.54
2019-04-01T23:08:31.057Z,5.36
2019-04-01T23:11:44.718Z,5.34
2019-04-01T23:14:58.206Z,5.27
2019-04-01T23:18:11.706Z,5.35
2019-04-01T23:21:25.584Z,5.34
2019-04-01T23:24:39.072Z,5.43
2019-04-01T23:27:52.556Z,5.34
2019-04-01T23:31:06.043Z,5.37
2019-04-01T23:34:19.535Z,5.39
2019-04-01T23:37:33.114Z,5.23
2019-04-01T23:40:46.607Z,5.22
2019-04-01T23:44:00.103Z,5.19
2019-04-01T23:47:13.674Z,5.04
2019-04-01T23:50:27.159Z,5.01
2019-04-01T23:53:40.626Z,5.00
2019-04-01T23:56:54.215Z,5.05
